createdAt,value
2023-02-28T00:01:32.509Z,101839.44
2023-02-28T00:04:00.556Z,101856.22
2023-02-28T00:06:28.244Z,101856.22
2023-02-28T00:08:55.739Z,101855.38
2023-02-28T00:11:30.041Z,101861.09
2023-02-28T00:13:58.772Z,101867.75
2023-02-28T00:16:26.523Z,101855.84
2023-02-28T00:18:53.935Z,101882.63
2023-02-28T00:21:22.348Z,101888.06
2023-02-28T00:23:50.344Z,101895.22
2023-02-28T00:26:20.048Z,101897.34
2023-02-28T00:28:49.484Z,101900.09
2023-02-28T00:31:16.958Z,101903.91
2023-02-28T00:33:44.338Z,101905.72
2023-02-28T00:36:12.798Z,101908.69
2023-02-28T00:38:42.406Z,101903.06
2023-02-28T00:41:10.227Z,101902.22
2023-02-28T00:43:39.953Z,101915.84
2023-02-28T00:46:07.984Z,101920.97
2023-02-28T00:48:35.861Z,101920.50
2023-02-28T00:51:03.885Z,101915.84
2023-02-28T00:53:34.888Z,101913.38
2023-02-28T00:56:04.095Z,101913.28
2023-02-28T00:58:36.224Z,101898.59
2023-02-28T01:01:03.970Z,101906.31
2023-02-28T01:03:31.685Z,101913.59
2023-02-28T01:05:59.365Z,101908.03
2023-02-28T01:08:27.884Z,101905.09
2023-02-28T01:10:58.455Z,101918.50
2023-02-28T01:13:26.530Z,101924.78
2023-02-28T01:15:57.175Z,101920.50
2023-02-28T01:18:26.152Z,101916.88
2023-02-28T01:20:53.961Z,101916.72
2023-02-28T01:23:24.395Z,101917.44
2023-02-28T01:25:53.663Z,101912.66
2023-02-28T01:28:21.528Z,101912.66
2023-02-28T01:30:51.267Z,101914.25
2023-02-28T01:33:19.417Z,101914.47
2023-02-28T01:35:46.971Z,101918.19
2023-02-28T01:38:22.155Z,101914.16
2023-02-28T01:40:50.141Z,101910.31
2023-02-28T01:43:24.192Z,101917.97
2023-02-28T01:45:52.996Z,101923.31
2023-02-28T01:48:30.490Z,101930.31
2023-02-28T01:51:02.490Z,101933.72
2023-02-28T01:53:48.472Z,101939.59
2023-02-28T01:56:23.087Z,101945.88
2023-02-28T01:58:53.409Z,101947.34
2023-02-28T02:01:26.726Z,101961.78
2023-02-28T02:04:00.306Z,101954.13
2023-02-28T02:06:39.344Z,101955.63
2023-02-28T02:09:07.319Z,101966.06
2023-02-28T02:11:36.669Z,101972.69
2023-02-28T02:14:39.080Z,101983.31
2023-02-28T02:17:43.315Z,101997.13
2023-02-28T02:20:32.915Z,101997.38
2023-02-28T02:23:35.377Z,102002.66
2023-02-28T02:26:28.494Z,102010.88
2023-02-28T02:29:15.152Z,102014.38
2023-02-28T02:32:13.511Z,102021.50
2023-02-28T02:34:52.360Z,102022.22
2023-02-28T02:37:19.745Z,102020.00
2023-02-28T02:40:04.751Z,102027.34
2023-02-28T02:42:49.818Z,102021.91
2023-02-28T02:45:29.781Z,102032.22
2023-02-28T02:48:01.220Z,102037.88
2023-02-28T02:50:36.413Z,102041.66
2023-02-28T02:53:07.341Z,102040.03
2023-02-28T02:55:41.203Z,102042.09
2023-02-28T02:58:25.309Z,102040.50
2023-02-28T03:00:58.573Z,102058.56
2023-02-28T03:03:30.451Z,102056.69
2023-02-28T03:06:00.734Z,102057.13
2023-02-28T03:08:30.185Z,102066.78
2023-02-28T03:11:02.211Z,102071.38
2023-02-28T03:14:04.089Z,102079.63
2023-02-28T03:16:35.489Z,102077.28
2023-02-28T03:19:27.850Z,102078.34
2023-02-28T03:22:22.800Z,102064.94
2023-02-28T03:25:02.919Z,102078.66
2023-02-28T03:27:34.364Z,102076.75
2023-02-28T03:30:10.825Z,102076.91
2023-02-28T03:32:50.007Z,102087.19
2023-02-28T03:35:28.716Z,102084.88
2023-02-28T03:38:15.002Z,102090.22
2023-02-28T03:40:49.981Z,102086.34
2023-02-28T03:43:24.045Z,102089.97
2023-02-28T03:45:53.986Z,102085.84
2023-02-28T03:48:36.974Z,102081.22
2023-02-28T03:51:10.490Z,102098.94
2023-02-28T03:53:44.912Z,102088.63
2023-02-28T03:56:34.341Z,102093.50
2023-02-28T03:59:10.066Z,102096.88
2023-02-28T04:01:48.280Z,102104.19
2023-02-28T04:04:17.702Z,102113.66
2023-02-28T04:06:52.073Z,102116.31
2023-02-28T04:09:20.122Z,102124.59
2023-02-28T04:11:54.001Z,102115.97
2023-02-28T04:14:21.400Z,102115.69
2023-02-28T04:16:48.872Z,102109.72
2023-02-28T04:19:16.322Z,102121.34
2023-02-28T04:21:52.456Z,102119.84
2023-02-28T04:24:24.663Z,102122.22
2023-02-28T04:26:55.998Z,102113.97
2023-02-28T04:29:29.342Z,102114.31
2023-02-28T04:31:59.119Z,102121.19
2023-02-28T04:34:28.507Z,102122.50
2023-02-28T04:37:12.073Z,102121.72
2023-02-28T04:39:41.866Z,102137.69
2023-02-28T04:42:09.804Z,102141.47
2023-02-28T04:44:37.679Z,102140.63
2023-02-28T04:47:06.381Z,102148.72
2023-02-28T04:49:34.245Z,102139.41
2023-02-28T04:52:03.086Z,102153.06
2023-02-28T04:54:31.880Z,102151.16
2023-02-28T04:56:59.346Z,102152.50
2023-02-28T04:59:26.852Z,102153.81
2023-02-28T05:01:54.564Z,102154.97
2023-02-28T05:04:21.977Z,102161.00
2023-02-28T05:06:51.130Z,102163.31
2023-02-28T05:09:18.905Z,102167.25
2023-02-28T05:11:47.726Z,102167.25
2023-02-28T05:14:15.658Z,102171.56
2023-02-28T05:16:43.738Z,102182.38
2023-02-28T05:19:11.422Z,102175.63
2023-02-28T05:21:49.022Z,102190.72
2023-02-28T05:24:23.884Z,102186.19
2023-02-28T05:26:54.639Z,102193.75
2023-02-28T05:29:22.764Z,102188.81
2023-02-28T05:31:50.577Z,102200.50
2023-02-28T05:34:18.153Z,102203.72
2023-02-28T05:36:45.585Z,102199.34
2023-02-28T05:39:14.197Z,102206.47
2023-02-28T05:41:44.351Z,102195.25
2023-02-28T05:44:12.249Z,102187.47
2023-02-28T05:46:45.159Z,102211.28
2023-02-28T05:49:12.791Z,102214.13
2023-02-28T05:51:41.132Z,102216.59
2023-02-28T05:54:13.796Z,102223.63
2023-02-28T05:56:41.798Z,102237.28
2023-02-28T05:59:09.173Z,102235.94
2023-02-28T06:01:42.048Z,102232.38
2023-02-28T06:04:22.350Z,102227.63
2023-02-28T06:06:58.589Z,102237.31
2023-02-28T06:09:32.709Z,102247.66
2023-02-28T06:12:04.070Z,102256.97
2023-02-28T06:14:34.592Z,102259.13
2023-02-28T06:17:04.969Z,102253.97
2023-02-28T06:19:33.602Z,102275.66
2023-02-28T06:22:01.180Z,102277.19
2023-02-28T06:24:32.351Z,102274.22
2023-02-28T06:27:06.174Z,102280.22
2023-02-28T06:29:37.503Z,102276.41
2023-02-28T06:32:05.112Z,102292.63
2023-02-28T06:34:37.159Z,102290.47
2023-02-28T06:37:04.908Z,102282.50
2023-02-28T06:39:40.279Z,102284.00
2023-02-28T06:42:08.969Z,102281.16
2023-02-28T06:44:36.824Z,102293.03
2023-02-28T06:47:05.806Z,102283.63
2023-02-28T06:49:35.857Z,102290.16
2023-02-28T06:52:03.822Z,102286.66
2023-02-28T06:54:31.258Z,102294.34
2023-02-28T06:56:59.772Z,102298.91
2023-02-28T06:59:27.198Z,102295.19
2023-02-28T07:01:56.116Z,102278.50
2023-02-28T07:04:24.185Z,102287.25
2023-02-28T07:06:58.086Z,102279.34
2023-02-28T07:09:30.784Z,102286.19
2023-02-28T07:11:58.539Z,102280.69
2023-02-28T07:14:26.006Z,102288.75
2023-02-28T07:16:53.422Z,102294.44
2023-02-28T07:19:23.190Z,102301.00
2023-02-28T07:21:50.809Z,102297.50
2023-02-28T07:24:19.048Z,102299.09
2023-02-28T07:26:46.530Z,102306.78
2023-02-28T07:29:13.867Z,102302.97
2023-02-28T07:31:41.409Z,102307.00
2023-02-28T07:34:08.861Z,102306.56
2023-02-28T07:36:36.400Z,102296.34
2023-02-28T07:39:05.357Z,102300.09
2023-02-28T07:41:35.107Z,102294.03
2023-02-28T07:44:04.274Z,102293.41
2023-02-28T07:46:36.823Z,102298.63
2023-02-28T07:49:06.554Z,102302.97
2023-02-28T07:51:34.522Z,102289.19
2023-02-28T07:54:05.010Z,102288.75
2023-02-28T07:56:33.263Z,102285.56
2023-02-28T07:59:00.829Z,102295.84
2023-02-28T08:01:29.337Z,102299.94
2023-02-28T08:03:58.121Z,102299.28
2023-02-28T08:06:27.410Z,102310.78
2023-02-28T08:08:58.542Z,102305.66
2023-02-28T08:11:27.051Z,102308.56
2023-02-28T08:13:55.827Z,102298.13
2023-02-28T08:16:26.029Z,102314.00
2023-02-28T08:18:54.148Z,102306.31
2023-02-28T08:21:22.532Z,102308.88
2023-02-28T08:23:51.707Z,102307.63
2023-02-28T08:26:20.270Z,102314.44
2023-02-28T08:28:47.952Z,102313.75
2023-02-28T08:31:17.215Z,102307.63
2023-02-28T08:33:52.125Z,102311.44
2023-02-28T08:36:21.347Z,102327.00
2023-02-28T08:38:48.915Z,102326.81
2023-02-28T08:41:16.672Z,102333.13
2023-02-28T08:43:44.185Z,102328.94
2023-02-28T08:46:15.169Z,102334.03
2023-02-28T08:48:43.095Z,102339.06
2023-02-28T08:51:13.564Z,102332.28
2023-02-28T08:53:41.758Z,102340.59
2023-02-28T08:56:13.766Z,102339.44
2023-02-28T08:58:41.466Z,102345.31
2023-02-28T09:01:14.679Z,102340.72
2023-02-28T09:03:47.192Z,102343.25
2023-02-28T09:06:16.118Z,102344.78
2023-02-28T09:08:44.174Z,102351.28
2023-02-28T09:11:12.439Z,102356.09
2023-02-28T09:13:43.914Z,102346.66
2023-02-28T09:16:14.996Z,102348.16
2023-02-28T09:18:43.202Z,102347.75
2023-02-28T09:21:18.262Z,102357.44
2023-02-28T09:23:47.401Z,102360.41
2023-02-28T09:26:26.279Z,102361.91
2023-02-28T09:28:55.181Z,102380.78
2023-02-28T09:31:26.205Z,102375.88
2023-02-28T09:33:56.105Z,102373.25
2023-02-28T09:36:34.544Z,102392.69
2023-02-28T09:39:09.196Z,102391.59
2023-02-28T09:41:48.531Z,102379.22
2023-02-28T09:44:44.915Z,102374.78
2023-02-28T09:47:16.367Z,102372.81
2023-02-28T09:49:48.089Z,102383.91
2023-02-28T09:52:20.559Z,102378.19
2023-02-28T09:54:48.442Z,102382.78
2023-02-28T09:57:35.057Z,102389.13
2023-02-28T10:00:19.493Z,102380.38
2023-02-28T10:03:01.719Z,102376.28
2023-02-28T10:05:34.518Z,102382.47
2023-02-28T10:08:10.503Z,102372.38
2023-02-28T10:10:59.643Z,102372.00
2023-02-28T10:13:59.144Z,102373.13
2023-02-28T10:16:33.337Z,102364.06
2023-02-28T10:19:07.406Z,102356.97
2023-02-28T10:21:49.962Z,102354.91
2023-02-28T10:24:30.963Z,102349.44
2023-02-28T10:27:24.234Z,102354.50
2023-02-28T10:29:57.179Z,102355.97
2023-02-28T10:32:31.235Z,102340.00
2023-02-28T10:35:10.959Z,102335.84
2023-02-28T10:37:39.911Z,102325.34
2023-02-28T10:40:25.705Z,102333.22
2023-02-28T10:43:06.771Z,102338.75
2023-02-28T10:45:38.152Z,102334.28
2023-02-28T10:48:06.103Z,102324.78
2023-02-28T10:50:50.734Z,102325.34
2023-02-28T10:53:26.916Z,102320.41
2023-02-28T10:56:05.472Z,102336.66
2023-02-28T10:58:49.760Z,102333.94
2023-02-28T11:01:45.799Z,102336.88
2023-02-28T11:04:36.995Z,102320.75
2023-02-28T11:07:23.133Z,102315.97
2023-02-28T11:09:54.959Z,102319.38
2023-02-28T11:12:37.828Z,102324.06
2023-02-28T11:15:22.111Z,102317.13
2023-02-28T11:18:00.009Z,102321.91
2023-02-28T11:20:31.084Z,102315.22
2023-02-28T11:23:02.043Z,102321.72
2023-02-28T11:25:40.092Z,102320.66
2023-02-28T11:28:35.844Z,102324.47
2023-02-28T11:31:15.512Z,102321.72
2023-02-28T11:33:46.193Z,102311.50
2023-02-28T11:36:25.785Z,102319.00
2023-02-28T11:39:11.010Z,102313.06
2023-02-28T11:42:07.266Z,102316.78
2023-02-28T11:45:04.164Z,102320.84
2023-02-28T11:47:43.538Z,102317.00
2023-02-28T11:50:39.712Z,102319.13
2023-02-28T11:53:23.669Z,102319.56
2023-02-28T11:56:17.651Z,102311.44
2023-02-28T11:59:03.238Z,102305.16
2023-02-28T12:01:54.165Z,102312.88
2023-02-28T12:04:27.487Z,102306.34
2023-02-28T12:07:06.325Z,102314.00
2023-02-28T12:10:06.597Z,102302.63
2023-02-28T12:12:43.954Z,102307.78
2023-02-28T12:15:49.012Z,102306.84
2023-02-28T12:18:48.707Z,102318.19
2023-02-28T12:21:26.220Z,102298.56
2023-02-28T12:24:19.297Z,102298.66
2023-02-28T12:26:48.387Z,102289.91
2023-02-28T12:29:46.164Z,102291.50
2023-02-28T12:32:38.900Z,102300.59
2023-02-28T12:35:15.869Z,102307.63
2023-02-28T12:37:48.212Z,102304.09
2023-02-28T12:40:32.534Z,102302.06
2023-02-28T12:43:05.419Z,102313.38
2023-02-28T12:45:52.141Z,102304.91
2023-02-28T12:48:27.084Z,102303.56
2023-02-28T12:50:55.542Z,102304.41
2023-02-28T12:53:43.109Z,102300.59
2023-02-28T12:56:16.246Z,102302.50
2023-02-28T12:58:58.312Z,102295.19
2023-02-28T13:01:37.827Z,102298.66
2023-02-28T13:04:36.168Z,102297.38
2023-02-28T13:07:14.384Z,102302.75
2023-02-28T13:09:54.663Z,102307.03
2023-02-28T13:12:27.961Z,102298.66
2023-02-28T13:15:25.378Z,102295.56
2023-02-28T13:17:54.949Z,102298.66
2023-02-28T13:20:48.666Z,102289.72
2023-02-28T13:23:58.163Z,102297.41
2023-02-28T13:26:31.591Z,102297.91
2023-02-28T13:29:21.892Z,102286.28
2023-02-28T13:32:07.971Z,102287.47
2023-02-28T13:34:37.524Z,102278.31
2023-02-28T13:37:23.372Z,102283.28
2023-02-28T13:39:57.251Z,102284.81
2023-02-28T13:42:25.783Z,102294.94
2023-02-28T13:45:03.505Z,102282.53
2023-02-28T13:47:40.525Z,102276.41
2023-02-28T13:50:23.846Z,102290.09
2023-02-28T13:53:09.527Z,102274.81
2023-02-28T13:56:02.554Z,102276.75
2023-02-28T13:58:35.745Z,102286.69
2023-02-28T14:01:25.366Z,102282.66
2023-02-28T14:04:35.757Z,102276.38
2023-02-28T14:07:04.457Z,102273.28
2023-02-28T14:09:36.379Z,102273.38
2023-02-28T14:12:44.123Z,102269.22
2023-02-28T14:15:40.934Z,102272.84
2023-02-28T14:18:33.857Z,102266.44
2023-02-28T14:21:32.078Z,102268.91
2023-02-28T14:24:08.478Z,102261.75
2023-02-28T14:27:04.825Z,102268.88
2023-02-28T14:29:38.649Z,102265.75
2023-02-28T14:32:36.701Z,102262.16
2023-02-28T14:35:34.140Z,102262.50
2023-02-28T14:38:08.156Z,102269.66
2023-02-28T14:40:39.054Z,102271.50
2023-02-28T14:43:21.965Z,102263.81
2023-02-28T14:46:01.707Z,102262.09
2023-02-28T14:48:29.871Z,102266.91
2023-02-28T14:51:02.204Z,102251.47
2023-02-28T14:53:36.691Z,102255.25
2023-02-28T14:56:04.578Z,102256.69
2023-02-28T14:58:34.778Z,102254.25
2023-02-28T15:01:04.635Z,102249.47
2023-02-28T15:03:34.137Z,102247.03
2023-02-28T15:06:04.807Z,102252.78
2023-02-28T15:08:37.288Z,102247.81
2023-02-28T15:11:08.825Z,102251.97
2023-02-28T15:13:46.064Z,102242.63
2023-02-28T15:16:20.709Z,102235.34
2023-02-28T15:19:27.332Z,102236.63
2023-02-28T15:22:04.219Z,102238.72
2023-02-28T15:24:37.898Z,102239.31
2023-02-28T15:27:09.186Z,102227.06
2023-02-28T15:29:51.912Z,102240.25
2023-02-28T15:32:32.919Z,102242.72
2023-02-28T15:35:23.933Z,102241.53
2023-02-28T15:38:25.258Z,102242.53
2023-02-28T15:40:58.565Z,102245.44
2023-02-28T15:43:34.904Z,102249.22
2023-02-28T15:46:08.454Z,102244.44
2023-02-28T15:48:45.585Z,102249.94
2023-02-28T15:51:13.308Z,102257.94
2023-02-28T15:53:49.840Z,102256.66
2023-02-28T15:56:35.101Z,102255.53
2023-02-28T15:59:08.825Z,102259.16
2023-02-28T16:01:38.428Z,102261.91
2023-02-28T16:04:19.159Z,102262.19
2023-02-28T16:07:01.371Z,102271.28
2023-02-28T16:09:35.159Z,102263.28
2023-02-28T16:12:04.556Z,102265.31
2023-02-28T16:14:32.468Z,102270.13
2023-02-28T16:17:06.546Z,102263.03
2023-02-28T16:19:34.823Z,102264.75
2023-02-28T16:22:07.065Z,102274.34
2023-02-28T16:24:34.718Z,102271.38
2023-02-28T16:27:02.501Z,102270.53
2023-02-28T16:29:33.685Z,102279.53
2023-02-28T16:32:02.644Z,102278.13
2023-02-28T16:34:31.015Z,102270.53
2023-02-28T16:36:59.582Z,102272.31
2023-02-28T16:39:26.929Z,102268.25
2023-02-28T16:41:54.487Z,102262.34
2023-02-28T16:44:34.830Z,102263.84
2023-02-28T16:47:03.697Z,102266.84
2023-02-28T16:49:31.576Z,102260.59
2023-02-28T16:51:59.412Z,102259.25
2023-02-28T16:54:27.646Z,102268.66
2023-02-28T16:56:55.440Z,102260.19
2023-02-28T16:59:25.651Z,102272.19
2023-02-28T17:01:53.808Z,102270.84
2023-02-28T17:04:21.647Z,102265.91
2023-02-28T17:06:49.154Z,102261.34
2023-02-28T17:09:20.890Z,102259.50
2023-02-28T17:11:49.081Z,102258.09
2023-02-28T17:14:18.395Z,102251.78
2023-02-28T17:16:45.844Z,102264.75
2023-02-28T17:19:18.035Z,102266.00
2023-02-28T17:21:47.328Z,102262.03
2023-02-28T17:24:22.195Z,102260.69
2023-02-28T17:26:57.303Z,102261.47
2023-02-28T17:29:25.749Z,102254.22
2023-02-28T17:31:54.939Z,102258.72
2023-02-28T17:34:23.480Z,102259.28
2023-02-28T17:36:53.328Z,102263.34
2023-02-28T17:39:25.306Z,102262.66
2023-02-28T17:41:56.653Z,102272.00
2023-02-28T17:44:25.197Z,102273.41
2023-02-28T17:46:54.497Z,102266.31
2023-02-28T17:49:23.087Z,102270.69
2023-02-28T17:51:51.580Z,102269.16
2023-02-28T17:54:19.382Z,102271.22
2023-02-28T17:56:47.252Z,102264.72
2023-02-28T17:59:17.269Z,102271.13
2023-02-28T18:01:45.205Z,102276.50
2023-02-28T18:04:12.691Z,102273.25
2023-02-28T18:06:51.016Z,102270.94
2023-02-28T18:09:23.570Z,102274.78
2023-02-28T18:11:52.704Z,102269.31
2023-02-28T18:14:24.488Z,102269.97
2023-02-28T18:16:57.712Z,102267.06
2023-02-28T18:19:25.320Z,102270.13
2023-02-28T18:21:54.186Z,102262.63
2023-02-28T18:24:24.651Z,102272.53
2023-02-28T18:26:52.464Z,102271.47
2023-02-28T18:29:28.617Z,102267.66
2023-02-28T18:31:57.428Z,102266.19
2023-02-28T18:34:25.956Z,102273.69
2023-02-28T18:36:54.204Z,102269.56
2023-02-28T18:39:22.124Z,102271.50
2023-02-28T18:41:49.526Z,102273.78
2023-02-28T18:44:20.186Z,102281.56
2023-02-28T18:46:51.242Z,102281.00
2023-02-28T18:49:19.832Z,102281.50
2023-02-28T18:51:48.004Z,102280.00
2023-02-28T18:54:17.743Z,102273.78
2023-02-28T18:56:45.970Z,102272.50
2023-02-28T18:59:13.829Z,102274.59
2023-02-28T19:01:41.272Z,102280.44
2023-02-28T19:04:13.115Z,102271.94
2023-02-28T19:06:42.683Z,102270.72
2023-02-28T19:09:10.906Z,102270.22
2023-02-28T19:11:39.153Z,102274.44
2023-02-28T19:14:09.757Z,102276.41
2023-02-28T19:16:37.714Z,102271.84
2023-02-28T19:19:05.720Z,102273.66
2023-02-28T19:21:36.743Z,102274.81
2023-02-28T19:24:04.876Z,102274.91
2023-02-28T19:26:38.896Z,102280.09
2023-02-28T19:29:06.969Z,102276.47
2023-02-28T19:31:34.782Z,102276.44
2023-02-28T19:34:03.021Z,102274.06
2023-02-28T19:36:30.598Z,102271.16
2023-02-28T19:38:58.057Z,102275.50
2023-02-28T19:41:25.524Z,102269.84
2023-02-28T19:43:54.288Z,102268.44
2023-02-28T19:46:21.752Z,102274.34
2023-02-28T19:48:49.272Z,102268.88
2023-02-28T19:53:55.637Z,102269.41
2023-02-28T19:56:23.003Z,102265.88
2023-02-28T19:58:50.437Z,102262.97
2023-02-28T20:01:20.238Z,102257.09
2023-02-28T20:03:51.969Z,102262.03
2023-02-28T20:06:19.373Z,102261.91
2023-02-28T20:08:46.854Z,102258.41
2023-02-28T20:11:17.467Z,102255.31
2023-02-28T20:13:45.343Z,102255.91
2023-02-28T20:16:15.242Z,102261.97
2023-02-28T20:18:44.723Z,102256.31
2023-02-28T20:21:14.261Z,102255.19
2023-02-28T20:23:48.676Z,102255.66
2023-02-28T20:26:17.110Z,102251.47
2023-02-28T20:28:44.495Z,102246.31
2023-02-28T20:31:15.409Z,102244.72
2023-02-28T20:33:46.608Z,102239.19
2023-02-28T20:36:15.891Z,102237.75
2023-02-28T20:38:43.670Z,102233.75
2023-02-28T20:41:17.019Z,102236.22
2023-02-28T20:43:46.135Z,102223.78
2023-02-28T20:46:13.743Z,102226.06
2023-02-28T20:48:42.093Z,102219.50
2023-02-28T20:51:09.653Z,102233.69
2023-02-28T20:53:39.695Z,102225.97
2023-02-28T20:56:16.084Z,102238.19
2023-02-28T20:58:48.746Z,102235.28
2023-02-28T21:01:26.013Z,102232.97
2023-02-28T21:03:53.581Z,102236.34
2023-02-28T21:06:24.270Z,102236.22
2023-02-28T21:08:58.722Z,102238.25
2023-02-28T21:11:31.831Z,102223.75
2023-02-28T21:14:01.944Z,102234.50
2023-02-28T21:16:30.514Z,102229.59
2023-02-28T21:19:03.990Z,102228.28
2023-02-28T21:21:34.632Z,102238.31
2023-02-28T21:24:02.327Z,102230.25
2023-02-28T21:26:31.348Z,102230.72
2023-02-28T21:29:03.011Z,102232.66
2023-02-28T21:31:33.884Z,102226.81
2023-02-28T21:34:03.553Z,102232.00
2023-02-28T21:36:36.692Z,102229.03
2023-02-28T21:39:12.936Z,102232.31
2023-02-28T21:41:41.715Z,102228.75
2023-02-28T21:44:18.434Z,102216.47
2023-02-28T21:46:48.092Z,102216.72
2023-02-28T21:49:16.348Z,102221.75
2023-02-28T21:51:48.383Z,102218.47
2023-02-28T21:54:16.073Z,102222.34
2023-02-28T21:56:43.485Z,102213.53
2023-02-28T21:59:11.334Z,102214.03
2023-02-28T22:01:41.439Z,102217.28
2023-02-28T22:04:21.249Z,102210.44
2023-02-28T22:06:52.593Z,102197.63
2023-02-28T22:09:20.819Z,102198.19
2023-02-28T22:11:50.481Z,102195.59
2023-02-28T22:14:19.199Z,102195.06
2023-02-28T22:16:54.476Z,102190.91
2023-02-28T22:19:24.170Z,102187.22
2023-02-28T22:21:53.838Z,102179.50
2023-02-28T22:24:24.628Z,102166.22
2023-02-28T22:26:52.894Z,102167.66
2023-02-28T22:29:20.607Z,102158.22
2023-02-28T22:31:48.525Z,102162.16
2023-02-28T22:34:20.110Z,102153.72
2023-02-28T22:36:47.522Z,102146.66
2023-02-28T22:39:14.951Z,102140.41
2023-02-28T22:41:42.341Z,102146.50
2023-02-28T22:44:11.131Z,102143.09
2023-02-28T22:46:38.999Z,102146.03
2023-02-28T22:49:06.892Z,102143.56
2023-02-28T22:51:35.142Z,102152.41
2023-02-28T22:54:03.938Z,102150.03
2023-02-28T22:56:33.279Z,102149.38
2023-02-28T22:59:01.903Z,102150.19
2023-02-28T23:01:34.669Z,102141.72
2023-02-28T23:04:03.110Z,102137.97
2023-02-28T23:06:33.989Z,102131.56
2023-02-28T23:09:07.100Z,102135.06
2023-02-28T23:11:40.031Z,102132.00
2023-02-28T23:14:10.219Z,102136.28
2023-02-28T23:16:49.532Z,102135.25
2023-02-28T23:19:30.150Z,102141.13
2023-02-28T23:21:59.560Z,102139.22
2023-02-28T23:24:29.327Z,102144.41
2023-02-28T23:26:59.550Z,102133.53
2023-02-28T23:29:29.555Z,102127.84
2023-02-28T23:31:57.871Z,102126.41
2023-02-28T23:34:30.571Z,102127.41
2023-02-28T23:37:00.443Z,102126.13
2023-02-28T23:39:29.465Z,102126.41
2023-02-28T23:42:00.315Z,102120.84
2023-02-28T23:44:28.165Z,102112.88
2023-02-28T23:46:55.762Z,102117.69
2023-02-28T23:49:23.864Z,102105.59
2023-02-28T23:51:52.069Z,102111.63
2023-02-28T23:54:19.607Z,102110.09
2023-02-28T23:56:47.494Z,102098.13
2023-02-28T23:59:17.040Z,102089.53
